Limnos, Greece
Current Conditions -  °F | °C
As of 6:20 PM on Friday 24 Oct 2014 (Local Time) from LGLM Reporting Station
Moderate Rain Moderate Rain  
Wind Chill: 61°   Ceiling: 2000
Heat Index: 61°   Visibility: 3mi
Dew Point: 55°   Wind: 18mph
Humidity: 82%   Direction: 110°ESE
Pressure: 29.71"   Gusts: 30mph
Location:  39.92°N, 25.24°E
Report Text: LGLM 241520Z 11016G26KT 5000 RA SCT008 FEW016TCU BKN020 OVC080 16/13 Q1006
Loading
Personal Weather Stations






























Interactive Weather Map
Tropical Storm Tracking
New forecast layout! Learn more

10-Day Weather Forecast

Advertisements
Track Severe Weather on mobile